sensor_id;sensor_type;location;lat;lon;timestamp;pressure;altitude;pressure_sealevel;temperature;humidity
34921;BME280;21128;50.016;20.002;2022-08-19T00:01:57;98384.52;;;21.35;89.11
34921;BME280;21128;50.016;20.002;2022-08-19T00:04:28;98380.22;;;21.34;89.37
34921;BME280;21128;50.016;20.002;2022-08-19T00:06:57;98392.41;;;21.30;89.15
34921;BME280;21128;50.016;20.002;2022-08-19T00:09:31;98390.78;;;21.29;89.48
34921;BME280;21128;50.016;20.002;2022-08-19T00:11:59;98397.17;;;21.28;89.47
34921;BME280;21128;50.016;20.002;2022-08-19T00:14:27;98380.48;;;21.26;89.63
34921;BME280;21128;50.016;20.002;2022-08-19T00:16:54;98387.91;;;21.24;88.91
34921;BME280;21128;50.016;20.002;2022-08-19T00:19:28;98398.83;;;21.22;88.87
34921;BME280;21128;50.016;20.002;2022-08-19T00:22:01;98386.12;;;21.18;89.08
34921;BME280;21128;50.016;20.002;2022-08-19T00:24:29;98391.69;;;21.16;89.87
34921;BME280;21128;50.016;20.002;2022-08-19T00:26:56;98391.91;;;21.15;89.44
34921;BME280;21128;50.016;20.002;2022-08-19T00:29:24;98379.01;;;21.12;89.67
34921;BME280;21128;50.016;20.002;2022-08-19T00:31:52;98386.41;;;21.09;90.14
34921;BME280;21128;50.016;20.002;2022-08-19T00:34:23;98385.81;;;21.07;89.59
34921;BME280;21128;50.016;20.002;2022-08-19T00:36:51;98380.11;;;21.04;89.80
34921;BME280;21128;50.016;20.002;2022-08-19T00:39:18;98385.67;;;21.02;90.06
34921;BME280;21128;50.016;20.002;2022-08-19T00:41:45;98381.80;;;20.98;90.42
34921;BME280;21128;50.016;20.002;2022-08-19T00:44:19;98374.01;;;20.97;91.07
34921;BME280;21128;50.016;20.002;2022-08-19T00:46:47;98378.53;;;20.96;90.90
34921;BME280;21128;50.016;20.002;2022-08-19T00:49:19;98389.44;;;20.95;90.42
34921;BME280;21128;50.016;20.002;2022-08-19T00:51:50;98383.28;;;20.94;91.04
34921;BME280;21128;50.016;20.002;2022-08-19T00:54:19;98389.44;;;20.95;91.09
34921;BME280;21128;50.016;20.002;2022-08-19T00:56:46;98380.61;;;20.94;91.14
34921;BME280;21128;50.016;20.002;2022-08-19T00:59:14;98380.61;;;20.94;91.76
34921;BME280;21128;50.016;20.002;2022-08-19T01:01:43;98377.32;;;20.92;91.19
34921;BME280;21128;50.016;20.002;2022-08-19T01:04:10;98376.73;;;20.90;91.77
34921;BME280;21128;50.016;20.002;2022-08-19T01:06:44;98380.44;;;20.89;91.23
34921;BME280;21128;50.016;20.002;2022-08-19T01:09:24;98375.92;;;20.90;92.29
34921;BME280;21128;50.016;20.002;2022-08-19T01:11:51;98369.17;;;20.87;91.69
34921;BME280;21128;50.016;20.002;2022-08-19T01:14:19;98370.21;;;20.86;92.08
34921;BME280;21128;50.016;20.002;2022-08-19T01:16:46;98365.91;;;20.85;92.29
34921;BME280;21128;50.016;20.002;2022-08-19T01:19:31;98358.55;;;20.80;92.56
34921;BME280;21128;50.016;20.002;2022-08-19T01:22:31;98360.63;;;20.78;93.05
34921;BME280;21128;50.016;20.002;2022-08-19T01:25:01;98349.13;;;20.78;93.26
34921;BME280;21128;50.016;20.002;2022-08-19T01:27:37;98352.84;;;20.77;93.17
34921;BME280;21128;50.016;20.002;2022-08-19T01:30:05;98355.92;;;20.74;93.12
34921;BME280;21128;50.016;20.002;2022-08-19T01:32:33;98348.37;;;20.71;92.73
34921;BME280;21128;50.016;20.002;2022-08-19T01:35:04;98339.14;;;20.67;92.97
34921;BME280;21128;50.016;20.002;2022-08-19T01:37:47;98347.60;;;20.64;93.02
34921;BME280;21128;50.016;20.002;2022-08-19T01:40:16;98340.23;;;20.59;93.28
34921;BME280;21128;50.016;20.002;2022-08-19T01:42:43;98335.71;;;20.60;94.25
34921;BME280;21128;50.016;20.002;2022-08-19T01:45:10;98330.82;;;20.57;94.23
34921;BME280;21128;50.016;20.002;2022-08-19T01:47:37;98331.86;;;20.56;94.15
34921;BME280;21128;50.016;20.002;2022-08-19T01:50:06;98339.50;;;20.52;94.95
34921;BME280;21128;50.016;20.002;2022-08-19T01:52:39;98354.07;;;20.49;95.09
34921;BME280;21128;50.016;20.002;2022-08-19T01:55:09;98348.95;;;20.48;95.40
34921;BME280;21128;50.016;20.002;2022-08-19T01:57:39;98350.22;;;20.45;94.97
34921;BME280;21128;50.016;20.002;2022-08-19T02:00:11;98347.55;;;20.45;95.21
34921;BME280;21128;50.016;20.002;2022-08-19T02:02:38;98347.77;;;20.44;95.25
34921;BME280;21128;50.016;20.002;2022-08-19T02:05:06;98353.92;;;20.44;95.52
34921;BME280;21128;50.016;20.002;2022-08-19T02:07:35;98348.75;;;20.43;95.72
34921;BME280;21128;50.016;20.002;2022-08-19T02:10:12;98346.95;;;20.43;96.56
34921;BME280;21128;50.016;20.002;2022-08-19T02:12:49;98343.63;;;20.41;96.73
34921;BME280;21128;50.016;20.002;2022-08-19T02:15:22;98340.37;;;20.39;96.57
34921;BME280;21128;50.016;20.002;2022-08-19T02:17:49;98337.11;;;20.37;96.58
34921;BME280;21128;50.016;20.002;2022-08-19T02:20:16;98335.48;;;20.36;96.72
34921;BME280;21128;50.016;20.002;2022-08-19T02:22:49;98338.15;;;20.36;97.14
34921;BME280;21128;50.016;20.002;2022-08-19T02:25:16;98332.19;;;20.34;97.32
34921;BME280;21128;50.016;20.002;2022-08-19T02:27:43;98329.74;;;20.33;96.93
34921;BME280;21128;50.016;20.002;2022-08-19T02:30:14;98325.45;;;20.32;97.28
34921;BME280;21128;50.016;20.002;2022-08-19T02:32:43;98318.92;;;20.28;97.85
34921;BME280;21128;50.016;20.002;2022-08-19T02:35:16;98327.13;;;20.26;97.56
34921;BME280;21128;50.016;20.002;2022-08-19T02:37:44;98326.53;;;20.24;97.41
34921;BME280;21128;50.016;20.002;2022-08-19T02:40:31;98331.27;;;20.22;98.27
34921;BME280;21128;50.016;20.002;2022-08-19T02:43:02;98335.41;;;20.18;98.12
34921;BME280;21128;50.016;20.002;2022-08-19T02:45:34;98338.49;;;20.15;98.29
34921;BME280;21128;50.016;20.002;2022-08-19T02:48:02;98338.12;;;20.11;97.88
34921;BME280;21128;50.016;20.002;2022-08-19T02:50:29;98329.71;;;20.08;98.35
34921;BME280;21128;50.016;20.002;2022-08-19T02:52:56;98331.56;;;20.07;99.05
34921;BME280;21128;50.016;20.002;2022-08-19T02:55:22;98329.94;;;20.06;99.05
34921;BME280;21128;50.016;20.002;2022-08-19T02:57:49;98327.70;;;20.03;99.16
34921;BME280;21128;50.016;20.002;2022-08-19T03:00:22;98332.82;;;20.05;99.43
34921;BME280;21128;50.016;20.002;2022-08-19T03:02:50;98333.64;;;20.05;100.00
34921;BME280;21128;50.016;20.002;2022-08-19T03:05:17;98340.60;;;20.06;100.00
34921;BME280;21128;50.016;20.002;2022-08-19T03:07:51;98348.23;;;20.03;100.00
34921;BME280;21128;50.016;20.002;2022-08-19T03:10:25;98349.27;;;20.02;100.00
34921;BME280;21128;50.016;20.002;2022-08-19T03:12:52;98351.70;;;20.03;100.00
34921;BME280;21128;50.016;20.002;2022-08-19T03:15:19;98348.01;;;20.04;100.00
34921;BME280;21128;50.016;20.002;2022-08-19T03:17:53;98356.83;;;20.05;100.00
34921;BME280;21128;50.016;20.002;2022-08-19T03:20:20;98355.79;;;20.06;100.00
34921;BME280;21128;50.016;20.002;2022-08-19T03:22:47;98361.13;;;20.06;100.00
34921;BME280;21128;50.016;20.002;2022-08-19T03:25:14;98357.67;;;19.99;100.00
34921;BME280;21128;50.016;20.002;2022-08-19T03:27:41;98358.70;;;19.98;100.00
34921;BME280;21128;50.016;20.002;2022-08-19T03:30:14;98355.47;;;19.89;100.00
34921;BME280;21128;50.016;20.002;2022-08-19T03:32:41;98345.25;;;19.86;100.00
34921;BME280;21128;50.016;20.002;2022-08-19T03:35:13;98351.39;;;19.86;100.00
34921;BME280;21128;50.016;20.002;2022-08-19T03:37:47;98349.77;;;19.85;100.00
34921;BME280;21128;50.016;20.002;2022-08-19T03:40:14;98350.61;;;19.79;100.00
34921;BME280;21128;50.016;20.002;2022-08-19T03:42:41;98352.70;;;19.71;100.00
34921;BME280;21128;50.016;20.002;2022-08-19T03:45:08;98348.63;;;19.68;100.00
34921;BME280;21128;50.016;20.002;2022-08-19T03:47:37;98357.84;;;19.65;100.00
34921;BME280;21128;50.016;20.002;2022-08-19T03:50:04;98368.93;;;19.62;100.00
34921;BME280;21128;50.016;20.002;2022-08-19T03:52:31;98374.64;;;19.66;100.00
34921;BME280;21128;50.016;20.002;2022-08-19T03:54:59;98369.51;;;19.71;100.00
34921;BME280;21128;50.016;20.002;2022-08-19T03:57:25;98367.44;;;19.73;100.00
34921;BME280;21128;50.016;20.002;2022-08-19T03:59:52;98367.44;;;19.73;100.00
34921;BME280;21128;50.016;20.002;2022-08-19T04:02:19;98360.70;;;19.71;100.00
34921;BME280;21128;50.016;20.002;2022-08-19T04:04:47;98358.47;;;19.67;100.00
34921;BME280;21128;50.016;20.002;2022-08-19T04:07:14;98357.62;;;19.67;100.00
34921;BME280;21128;50.016;20.002;2022-08-19T04:09:48;98355.98;;;19.66;100.00
34921;BME280;21128;50.016;20.002;2022-08-19T04:12:22;98357.23;;;19.63;100.00
34921;BME280;21128;50.016;20.002;2022-08-19T04:14:49;98365.45;;;19.62;100.00
34921;BME280;21128;50.016;20.002;2022-08-19T04:17:21;98346.20;;;19.60;100.00
34921;BME280;21128;50.016;20.002;2022-08-19T04:19:48;98353.38;;;19.59;100.00
34921;BME280;21128;50.016;20.002;2022-08-19T04:22:15;98360.92;;;19.56;100.00
34921;BME280;21128;50.016;20.002;2022-08-19T04:24:42;98360.73;;;19.57;100.00
34921;BME280;21128;50.016;20.002;2022-08-19T04:27:09;98368.11;;;19.62;100.00
34921;BME280;21128;50.016;20.002;2022-08-19T04:29:35;98370.34;;;19.65;100.00
34921;BME280;21128;50.016;20.002;2022-08-19T04:32:06;98357.62;;;19.67;100.00
34921;BME280;21128;50.016;20.002;2022-08-19T04:34:32;98354.77;;;19.68;100.00
34921;BME280;21128;50.016;20.002;2022-08-19T04:37:06;98356.40;;;19.70;100.00
34921;BME280;21128;50.016;20.002;2022-08-19T04:39:38;98365.81;;;19.72;100.00
34921;BME280;21128;50.016;20.002;2022-08-19T04:42:25;98359.64;;;19.78;100.00
34921;BME280;21128;50.016;20.002;2022-08-19T04:45:12;98365.33;;;19.88;100.00
34921;BME280;21128;50.016;20.002;2022-08-19T04:47:40;98378.84;;;19.93;100.00
34921;BME280;21128;50.016;20.002;2022-08-19T04:50:08;98376.34;;;19.99;100.00
34921;BME280;21128;50.016;20.002;2022-08-19T04:52:37;98380.83;;;20.05;100.00
34921;BME280;21128;50.016;20.002;2022-08-19T04:55:12;98390.59;;;20.17;100.00
34921;BME280;21128;50.016;20.002;2022-08-19T04:57:40;98391.14;;;20.26;100.00
34921;BME280;21128;50.016;20.002;2022-08-19T05:00:08;98403.64;;;20.32;100.00
34921;BME280;21128;50.016;20.002;2022-08-19T05:02:36;98405.45;;;20.38;100.00
34921;BME280;21128;50.016;20.002;2022-08-19T05:05:04;98399.66;;;20.48;100.00
34921;BME280;21128;50.016;20.002;2022-08-19T05:07:33;98399.41;;;20.56;100.00
34921;BME280;21128;50.016;20.002;2022-08-19T05:10:07;98404.03;;;20.67;100.00
34921;BME280;21128;50.016;20.002;2022-08-19T05:12:41;98408.73;;;20.72;100.00
34921;BME280;21128;50.016;20.002;2022-08-19T05:15:08;98404.58;;;20.76;100.00
34921;BME280;21128;50.016;20.002;2022-08-19T05:17:35;98405.20;;;20.78;100.00
34921;BME280;21128;50.016;20.002;2022-08-19T05:20:10;98401.63;;;20.84;100.00
34921;BME280;21128;50.016;20.002;2022-08-19T05:22:55;98408.33;;;20.93;100.00
34921;BME280;21128;50.016;20.002;2022-08-19T05:25:22;98405.19;;;21.03;100.00
34921;BME280;21128;50.016;20.002;2022-08-19T05:27:52;98408.98;;;21.14;100.00
34921;BME280;21128;50.016;20.002;2022-08-19T05:30:25;98412.02;;;21.17;100.00
34921;BME280;21128;50.016;20.002;2022-08-19T05:32:52;98420.56;;;21.26;100.00
34921;BME280;21128;50.016;20.002;2022-08-19T05:35:19;98421.94;;;21.35;100.00
34921;BME280;21128;50.016;20.002;2022-08-19T05:37:46;98421.66;;;21.43;100.00
34921;BME280;21128;50.016;20.002;2022-08-19T05:40:13;98416.02;;;21.51;100.00
34921;BME280;21128;50.016;20.002;2022-08-19T05:42:40;98413.66;;;21.61;100.00
34921;BME280;21128;50.016;20.002;2022-08-19T05:45:07;98424.71;;;21.65;100.00
34921;BME280;21128;50.016;20.002;2022-08-19T05:47:34;98413.48;;;21.75;99.87
34921;BME280;21128;50.016;20.002;2022-08-19T05:50:02;98422.84;;;21.84;98.84
34921;BME280;21128;50.016;20.002;2022-08-19T05:52:29;98414.23;;;21.82;98.53
34921;BME280;21128;50.016;20.002;2022-08-19T05:55:02;98410.05;;;21.86;97.37
34921;BME280;21128;50.016;20.002;2022-08-19T05:57:29;98403.22;;;21.90;97.02
34921;BME280;21128;50.016;20.002;2022-08-19T05:59:57;98414.28;;;21.93;97.45
34921;BME280;21128;50.016;20.002;2022-08-19T06:02:27;98412.57;;;21.99;97.18
34921;BME280;21128;50.016;20.002;2022-08-19T06:04:54;98412.28;;;22.07;96.59
34921;BME280;21128;50.016;20.002;2022-08-19T06:07:21;98410.03;;;22.23;96.92
34921;BME280;21128;50.016;20.002;2022-08-19T06:10:10;98410.75;;;22.30;95.62
34921;BME280;21128;50.016;20.002;2022-08-19T06:12:37;98415.41;;;22.34;95.40
34921;BME280;21128;50.016;20.002;2022-08-19T06:15:09;98411.02;;;22.40;95.74
34921;BME280;21128;50.016;20.002;2022-08-19T06:17:36;98409.88;;;22.47;95.05
34921;BME280;21128;50.016;20.002;2022-08-19T06:20:07;98404.30;;;22.61;95.07
34921;BME280;21128;50.016;20.002;2022-08-19T06:22:38;98410.51;;;22.73;94.86
34921;BME280;21128;50.016;20.002;2022-08-19T06:25:14;98410.09;;;22.88;94.07
34921;BME280;21128;50.016;20.002;2022-08-19T06:27:47;98420.34;;;23.02;93.60
34921;BME280;21128;50.016;20.002;2022-08-19T06:30:20;98425.81;;;23.19;92.68
34921;BME280;21128;50.016;20.002;2022-08-19T06:32:47;98412.30;;;23.26;92.01
34921;BME280;21128;50.016;20.002;2022-08-19T06:35:14;98420.12;;;23.39;91.86
34921;BME280;21128;50.016;20.002;2022-08-19T06:37:41;98411.80;;;23.52;91.06
34921;BME280;21128;50.016;20.002;2022-08-19T06:40:10;98417.77;;;23.66;90.64
34921;BME280;21128;50.016;20.002;2022-08-19T06:42:37;98426.50;;;23.73;88.93
34921;BME280;21128;50.016;20.002;2022-08-19T06:45:06;98422.28;;;23.77;88.85
34921;BME280;21128;50.016;20.002;2022-08-19T06:47:34;98422.16;;;23.84;88.39
34921;BME280;21128;50.016;20.002;2022-08-19T06:50:02;98422.02;;;23.91;87.73
34921;BME280;21128;50.016;20.002;2022-08-19T06:52:32;98432.14;;;24.00;87.36
34921;BME280;21128;50.016;20.002;2022-08-19T06:55:01;98437.45;;;24.12;87.42
34921;BME280;21128;50.016;20.002;2022-08-19T06:57:35;98435.45;;;24.19;86.71
34921;BME280;21128;50.016;20.002;2022-08-19T07:00:04;98438.45;;;24.34;86.69
34921;BME280;21128;50.016;20.002;2022-08-19T07:02:33;98443.37;;;24.54;86.65
34921;BME280;21128;50.016;20.002;2022-08-19T07:05:04;98442.02;;;24.68;85.62
34921;BME280;21128;50.016;20.002;2022-08-19T07:07:32;98447.14;;;24.70;84.86
34921;BME280;21128;50.016;20.002;2022-08-19T07:10:07;98451.55;;;24.76;84.76
34921;BME280;21128;50.016;20.002;2022-08-19T07:12:41;98452.20;;;24.83;83.91
34921;BME280;21128;50.016;20.002;2022-08-19T07:15:08;98455.06;;;24.93;83.41
34921;BME280;21128;50.016;20.002;2022-08-19T07:17:37;98454.99;;;25.05;82.94
34921;BME280;21128;50.016;20.002;2022-08-19T07:20:06;98451.98;;;25.18;82.57
34921;BME280;21128;50.016;20.002;2022-08-19T07:22:34;98455.16;;;25.32;82.28
34921;BME280;21128;50.016;20.002;2022-08-19T07:25:03;98447.28;;;25.47;81.92
34921;BME280;21128;50.016;20.002;2022-08-19T07:27:36;98449.38;;;25.62;81.30
34921;BME280;21128;50.016;20.002;2022-08-19T07:30:04;98448.25;;;25.75;79.67
34921;BME280;21128;50.016;20.002;2022-08-19T07:32:31;98446.23;;;25.87;79.82
34921;BME280;21128;50.016;20.002;2022-08-19T07:34:58;98451.25;;;26.00;79.31
34921;BME280;21128;50.016;20.002;2022-08-19T07:37:27;98457.62;;;26.16;78.69
34921;BME280;21128;50.016;20.002;2022-08-19T07:39:55;98446.70;;;26.28;78.21
34921;BME280;21128;50.016;20.002;2022-08-19T07:42:22;98452.45;;;26.36;76.85
34921;BME280;21128;50.016;20.002;2022-08-19T07:44:49;98454.98;;;26.43;76.04
34921;BME280;21128;50.016;20.002;2022-08-19T07:47:15;98454.82;;;26.55;75.38
34921;BME280;21128;50.016;20.002;2022-08-19T07:49:43;98450.59;;;26.64;75.08
34921;BME280;21128;50.016;20.002;2022-08-19T07:52:10;98457.41;;;26.72;74.67
34921;BME280;21128;50.016;20.002;2022-08-19T07:54:39;98458.35;;;26.87;74.92
34921;BME280;21128;50.016;20.002;2022-08-19T07:57:07;98462.88;;;27.09;74.56
34921;BME280;21128;50.016;20.002;2022-08-19T07:59:34;98453.02;;;27.25;72.98
34921;BME280;21128;50.016;20.002;2022-08-19T08:02:02;98459.30;;;27.35;73.25
34921;BME280;21128;50.016;20.002;2022-08-19T08:04:35;98468.80;;;27.48;72.39
34921;BME280;21128;50.016;20.002;2022-08-19T08:07:21;98471.13;;;27.66;72.21
34921;BME280;21128;50.016;20.002;2022-08-19T08:10:20;98477.92;;;27.79;71.40
34921;BME280;21128;50.016;20.002;2022-08-19T08:12:47;98469.09;;;27.99;70.80
34921;BME280;21128;50.016;20.002;2022-08-19T08:15:15;98466.98;;;28.16;70.66
34921;BME280;21128;50.016;20.002;2022-08-19T08:17:43;98481.39;;;28.32;69.99
34921;BME280;21128;50.016;20.002;2022-08-19T08:20:10;98479.56;;;28.53;69.30
34921;BME280;21128;50.016;20.002;2022-08-19T08:22:43;98477.94;;;28.57;68.91
34921;BME280;21128;50.016;20.002;2022-08-19T08:25:29;98468.79;;;28.78;68.90
34921;BME280;21128;50.016;20.002;2022-08-19T08:28:03;98472.62;;;29.03;68.40
34921;BME280;21128;50.016;20.002;2022-08-19T08:30:31;98473.12;;;29.25;67.78
34921;BME280;21128;50.016;20.002;2022-08-19T08:33:00;98479.61;;;29.44;67.05
34921;BME280;21128;50.016;20.002;2022-08-19T08:35:27;98474.70;;;29.67;66.54
34921;BME280;21128;50.016;20.002;2022-08-19T08:37:54;98478.70;;;29.90;66.12
34921;BME280;21128;50.016;20.002;2022-08-19T08:43:29;98476.23;;;29.98;65.01
34921;BME280;21128;50.016;20.002;2022-08-19T08:46:12;98469.71;;;30.05;64.10
34921;BME280;21128;50.016;20.002;2022-08-19T08:48:50;98479.73;;;30.04;63.55
34921;BME280;21128;50.016;20.002;2022-08-19T08:51:24;98483.02;;;29.96;63.17
34921;BME280;21128;50.016;20.002;2022-08-19T08:53:53;98477.33;;;29.92;62.64
34921;BME280;21128;50.016;20.002;2022-08-19T08:56:21;98476.80;;;29.95;62.97
34921;BME280;21128;50.016;20.002;2022-08-19T08:59:02;98476.23;;;29.98;62.48
34921;BME280;21128;50.016;20.002;2022-08-19T09:01:34;98470.50;;;30.15;62.79
34921;BME280;21128;50.016;20.002;2022-08-19T09:04:04;98474.45;;;30.38;62.63
34921;BME280;21128;50.016;20.002;2022-08-19T09:06:36;98472.94;;;30.66;62.25
34921;BME280;21128;50.016;20.002;2022-08-19T09:09:17;98464.49;;;30.73;60.95
34921;BME280;21128;50.016;20.002;2022-08-19T09:14:38;98468.27;;;31.11;59.71
34921;BME280;21128;50.016;20.002;2022-08-19T09:17:15;98467.00;;;31.32;59.71
34921;BME280;21128;50.016;20.002;2022-08-19T09:19:54;98470.09;;;31.50;58.68
34921;BME280;21128;50.016;20.002;2022-08-19T09:22:22;98468.25;;;31.45;57.75
34921;BME280;21128;50.016;20.002;2022-08-19T09:24:50;98467.03;;;31.56;58.46
34921;BME280;21128;50.016;20.002;2022-08-19T09:27:20;98460.71;;;31.90;58.47
34921;BME280;21128;50.016;20.002;2022-08-19T09:29:47;98455.91;;;32.25;57.62
34921;BME280;21128;50.016;20.002;2022-08-19T09:32:17;98445.87;;;32.44;57.01
34921;BME280;21128;50.016;20.002;2022-08-19T09:34:44;98446.82;;;32.53;55.71
34921;BME280;21128;50.016;20.002;2022-08-19T09:37:18;98445.95;;;32.58;55.51
34921;BME280;21128;50.016;20.002;2022-08-19T09:39:45;98451.16;;;32.73;55.39
34921;BME280;21128;50.016;20.002;2022-08-19T09:42:12;98447.93;;;32.90;55.17
34921;BME280;21128;50.016;20.002;2022-08-19T09:44:41;98452.21;;;33.10;54.32
34921;BME280;21128;50.016;20.002;2022-08-19T09:47:11;98444.85;;;33.10;53.25
34921;BME280;21128;50.016;20.002;2022-08-19T09:49:40;98445.78;;;33.19;53.49
34921;BME280;21128;50.016;20.002;2022-08-19T09:52:10;98443.84;;;33.39;53.45
34921;BME280;21128;50.016;20.002;2022-08-19T09:54:38;98434.67;;;33.48;52.88
34921;BME280;21128;50.016;20.002;2022-08-19T09:57:05;98442.95;;;33.57;52.86
34921;BME280;21128;50.016;20.002;2022-08-19T09:59:33;98438.41;;;33.66;52.62
34921;BME280;21128;50.016;20.002;2022-08-19T10:02:00;98433.09;;;33.89;52.16
34921;BME280;21128;50.016;20.002;2022-08-19T10:04:27;98429.03;;;34.00;51.71
34921;BME280;21128;50.016;20.002;2022-08-19T10:07:14;98433.63;;;34.13;51.21
34921;BME280;21128;50.016;20.002;2022-08-19T10:10:04;98427.35;;;34.26;50.21
34921;BME280;21128;50.016;20.002;2022-08-19T10:12:33;98435.86;;;34.11;49.40
34921;BME280;21128;50.016;20.002;2022-08-19T10:15:07;98430.82;;;34.04;49.35
34921;BME280;21128;50.016;20.002;2022-08-19T10:17:40;98429.03;;;34.00;49.23
34921;BME280;21128;50.016;20.002;2022-08-19T10:20:08;98422.15;;;34.02;49.05
34921;BME280;21128;50.016;20.002;2022-08-19T10:22:41;98418.91;;;34.14;48.03
34921;BME280;21128;50.016;20.002;2022-08-19T10:25:09;98417.41;;;34.08;47.43
34921;BME280;21128;50.016;20.002;2022-08-19T10:27:35;98420.05;;;33.99;47.74
34921;BME280;21128;50.016;20.002;2022-08-19T10:30:04;98416.59;;;34.07;47.32
34921;BME280;21128;50.016;20.002;2022-08-19T10:32:33;98423.12;;;34.20;46.50
34921;BME280;21128;50.016;20.002;2022-08-19T10:35:02;98421.09;;;34.26;45.97
34921;BME280;21128;50.016;20.002;2022-08-19T10:37:36;98415.25;;;34.19;46.22
34921;BME280;21128;50.016;20.002;2022-08-19T10:40:10;98410.99;;;34.26;45.99
34921;BME280;21128;50.016;20.002;2022-08-19T10:42:37;98424.70;;;34.35;45.88
34921;BME280;21128;50.016;20.002;2022-08-19T10:45:05;98428.16;;;34.40;45.90
34921;BME280;21128;50.016;20.002;2022-08-19T10:47:33;98432.32;;;34.60;45.16
34921;BME280;21128;50.016;20.002;2022-08-19T10:50:00;98430.89;;;34.63;44.54
34921;BME280;21128;50.016;20.002;2022-08-19T10:52:47;98425.49;;;34.71;44.85
34921;BME280;21128;50.016;20.002;2022-08-19T10:55:15;98427.04;;;34.64;43.44
34921;BME280;21128;50.016;20.002;2022-08-19T10:58:01;98424.45;;;34.59;43.79
34921;BME280;21128;50.016;20.002;2022-08-19T11:00:28;98435.74;;;34.66;43.62
34921;BME280;21128;50.016;20.002;2022-08-19T11:02:57;98420.30;;;34.84;44.50
34921;BME280;21128;50.016;20.002;2022-08-19T11:05:30;98425.20;;;34.95;44.08
34921;BME280;21128;50.016;20.002;2022-08-19T11:07:57;98420.87;;;34.94;43.18
34921;BME280;21128;50.016;20.002;2022-08-19T11:10:41;98421.22;;;34.79;43.03
34921;BME280;21128;50.016;20.002;2022-08-19T11:13:09;98414.66;;;34.58;42.39
34921;BME280;21128;50.016;20.002;2022-08-19T11:15:36;98409.94;;;34.50;43.79
34921;BME280;21128;50.016;20.002;2022-08-19T11:18:03;98405.59;;;34.71;43.78
34921;BME280;21128;50.016;20.002;2022-08-19T11:20:38;98397.45;;;34.80;43.81
34921;BME280;21128;50.016;20.002;2022-08-19T11:23:05;98397.42;;;34.93;44.41
34921;BME280;21128;50.016;20.002;2022-08-19T11:25:33;98392.41;;;35.18;44.09
34921;BME280;21128;50.016;20.002;2022-08-19T11:28:00;98391.65;;;35.26;43.15
34921;BME280;21128;50.016;20.002;2022-08-19T11:30:27;98397.31;;;35.38;42.43
34921;BME280;21128;50.016;20.002;2022-08-19T11:32:54;98383.26;;;35.53;42.45
34921;BME280;21128;50.016;20.002;2022-08-19T11:35:21;98387.66;;;35.80;42.87
34921;BME280;21128;50.016;20.002;2022-08-19T11:37:56;98379.05;;;36.04;42.03
34921;BME280;21128;50.016;20.002;2022-08-19T11:40:28;98381.47;;;36.15;42.37
34921;BME280;21128;50.016;20.002;2022-08-19T11:42:55;98382.45;;;36.10;40.81
34921;BME280;21128;50.016;20.002;2022-08-19T11:45:29;98381.78;;;36.04;41.10
34921;BME280;21128;50.016;20.002;2022-08-19T11:47:56;98376.17;;;36.27;41.61
34921;BME280;21128;50.016;20.002;2022-08-19T11:50:24;98374.11;;;36.50;41.32
34921;BME280;21128;50.016;20.002;2022-08-19T11:52:56;98377.28;;;36.78;41.44
34921;BME280;21128;50.016;20.002;2022-08-19T11:55:30;98373.80;;;37.15;41.32
34921;BME280;21128;50.016;20.002;2022-08-19T11:57:57;98375.66;;;37.41;41.31
34921;BME280;21128;50.016;20.002;2022-08-19T12:00:26;98380.74;;;37.60;40.62
34921;BME280;21128;50.016;20.002;2022-08-19T12:02:53;98382.01;;;37.62;40.22
34921;BME280;21128;50.016;20.002;2022-08-19T12:05:21;98377.00;;;37.64;39.93
34921;BME280;21128;50.016;20.002;2022-08-19T12:07:49;98380.36;;;37.70;39.98
34921;BME280;21128;50.016;20.002;2022-08-19T12:10:36;98386.28;;;37.81;39.37
34921;BME280;21128;50.016;20.002;2022-08-19T12:13:03;98392.51;;;37.60;38.87
34921;BME280;21128;50.016;20.002;2022-08-19T12:15:30;98388.85;;;37.47;38.24
34921;BME280;21128;50.016;20.002;2022-08-19T12:17:57;98384.22;;;37.39;38.54
34921;BME280;21128;50.016;20.002;2022-08-19T12:20:24;98375.95;;;37.48;37.86
34921;BME280;21128;50.016;20.002;2022-08-19T12:22:51;98382.06;;;37.54;38.00
34921;BME280;21128;50.016;20.002;2022-08-19T12:25:18;98378.47;;;37.62;37.63
34921;BME280;21128;50.016;20.002;2022-08-19T12:27:51;98376.80;;;37.78;37.40
34921;BME280;21128;50.016;20.002;2022-08-19T12:30:18;98389.12;;;37.93;37.61
34921;BME280;21128;50.016;20.002;2022-08-19T12:32:45;98384.44;;;38.14;36.82
34921;BME280;21128;50.016;20.002;2022-08-19T12:35:12;98389.05;;;38.22;35.77
34921;BME280;21128;50.016;20.002;2022-08-19T12:37:39;98379.37;;;38.25;36.06
34921;BME280;21128;50.016;20.002;2022-08-19T12:40:11;98373.08;;;38.24;36.36
34921;BME280;21128;50.016;20.002;2022-08-19T12:42:39;98368.39;;;38.25;35.51
34921;BME280;21128;50.016;20.002;2022-08-19T12:45:11;98361.81;;;38.17;35.94
34921;BME280;21128;50.016;20.002;2022-08-19T12:47:39;98366.98;;;38.19;35.46
34921;BME280;21128;50.016;20.002;2022-08-19T12:50:06;98369.84;;;38.22;35.39
34921;BME280;21128;50.016;20.002;2022-08-19T12:52:36;98359.89;;;38.18;34.84
34921;BME280;21128;50.016;20.002;2022-08-19T12:55:09;98367.52;;;38.12;34.84
34921;BME280;21128;50.016;20.002;2022-08-19T12:57:44;98358.75;;;38.19;35.32
34921;BME280;21128;50.016;20.002;2022-08-19T13:00:15;98355.21;;;38.18;34.75
34921;BME280;21128;50.016;20.002;2022-08-19T13:02:44;98350.19;;;38.20;35.17
34921;BME280;21128;50.016;20.002;2022-08-19T13:05:14;98353.95;;;38.37;35.32
34921;BME280;21128;50.016;20.002;2022-08-19T13:07:43;98363.16;;;38.53;34.57
34921;BME280;21128;50.016;20.002;2022-08-19T13:10:35;98363.02;;;38.08;33.53